createdAt,value
2022-10-17T00:01:52.768Z,13.00
2022-10-17T00:05:54.646Z,12.90
2022-10-17T00:09:56.538Z,13.00
2022-10-17T00:13:58.513Z,13.00
2022-10-17T00:18:01.215Z,13.10
2022-10-17T00:22:03.116Z,13.10
2022-10-17T00:26:06.141Z,13.10
2022-10-17T00:30:10.982Z,12.90
2022-10-17T00:34:12.869Z,12.80
2022-10-17T00:38:14.706Z,13.00
2022-10-17T00:42:16.558Z,13.10
2022-10-17T00:46:19.097Z,13.10
2022-10-17T00:50:21.686Z,13.20
2022-10-17T00:54:28.927Z,13.20
2022-10-17T00:58:30.842Z,13.10
2022-10-17T01:02:32.790Z,12.90
2022-10-17T01:06:34.622Z,12.80
2022-10-17T01:11:14.347Z,12.80
2022-10-17T01:15:22.124Z,12.80
2022-10-17T01:19:45.598Z,12.90
2022-10-17T01:23:59.922Z,13.00
2022-10-17T01:28:33.855Z,12.90
2022-10-17T01:32:47.790Z,13.00
2022-10-17T01:37:08.429Z,13.00
2022-10-17T01:41:27.469Z,12.80
2022-10-17T01:45:40.815Z,12.50
2022-10-17T01:49:45.167Z,12.40
2022-10-17T01:53:53.364Z,12.50
2022-10-17T01:58:01.108Z,12.30
2022-10-17T02:02:03.404Z,12.30
2022-10-17T02:06:06.332Z,12.20
2022-10-17T02:10:15.611Z,12.30
2022-10-17T02:14:23.088Z,12.20
2022-10-17T02:19:02.362Z,12.20
2022-10-17T02:23:24.405Z,12.20
2022-10-17T02:27:50.897Z,12.10
2022-10-17T02:32:14.029Z,12.20
2022-10-17T02:36:22.145Z,12.20
2022-10-17T02:40:26.571Z,12.00
2022-10-17T02:44:29.121Z,12.00
2022-10-17T02:48:37.203Z,12.20
2022-10-17T02:52:48.600Z,12.20
2022-10-17T02:57:23.522Z,12.30
2022-10-17T03:01:25.779Z,12.20
2022-10-17T03:05:29.471Z,12.20
2022-10-17T03:09:31.276Z,12.10
2022-10-17T03:13:35.063Z,12.10
2022-10-17T03:17:39.452Z,12.00
2022-10-17T03:21:41.467Z,12.20
2022-10-17T03:25:43.316Z,12.20
2022-10-17T03:29:45.177Z,12.10
2022-10-17T03:33:47.228Z,12.20
2022-10-17T03:37:49.108Z,12.10
2022-10-17T03:41:50.989Z,12.00
2022-10-17T03:45:52.857Z,12.00
2022-10-17T03:49:54.720Z,12.00
2022-10-17T03:53:56.561Z,11.90
2022-10-17T03:57:58.431Z,12.00
2022-10-17T04:02:00.224Z,11.80
2022-10-17T04:06:03.735Z,11.90
2022-10-17T04:10:06.284Z,11.90
2022-10-17T04:14:08.241Z,11.90
2022-10-17T04:18:10.087Z,12.10
2022-10-17T04:22:11.902Z,12.10
2022-10-17T04:26:13.931Z,12.10
2022-10-17T04:30:16.212Z,11.90
2022-10-17T04:34:18.330Z,12.00
2022-10-17T04:38:23.732Z,11.90
2022-10-17T04:42:29.655Z,11.80
2022-10-17T04:46:34.060Z,12.00
2022-10-17T04:50:36.034Z,11.70
2022-10-17T04:54:37.860Z,11.50
2022-10-17T04:58:40.579Z,11.60
2022-10-17T05:02:42.399Z,11.70
2022-10-17T05:06:44.304Z,11.80
2022-10-17T05:10:46.560Z,11.50
2022-10-17T05:14:48.446Z,11.70
2022-10-17T05:18:53.026Z,11.80
2022-10-17T05:22:55.457Z,11.80
2022-10-17T05:26:57.291Z,11.80
2022-10-17T05:31:03.584Z,11.40
2022-10-17T05:35:05.951Z,11.30
2022-10-17T05:39:08.876Z,11.40
2022-10-17T05:43:10.853Z,11.30
2022-10-17T05:47:12.740Z,11.30
2022-10-17T05:51:14.604Z,11.10
2022-10-17T05:55:16.426Z,11.20
2022-10-17T05:59:18.281Z,11.30
2022-10-17T06:03:20.119Z,11.40
2022-10-17T06:07:22.031Z,11.50
2022-10-17T06:11:23.873Z,11.50
2022-10-17T06:15:25.773Z,11.70
2022-10-17T06:19:27.628Z,11.80
2022-10-17T06:23:29.467Z,11.90
2022-10-17T06:27:31.270Z,11.80
2022-10-17T06:31:33.118Z,12.00
2022-10-17T06:35:35.011Z,12.00
2022-10-17T06:39:36.867Z,12.20
2022-10-17T06:43:39.214Z,12.30
2022-10-17T06:47:41.073Z,12.50
2022-10-17T06:51:43.038Z,13.10
2022-10-17T06:55:44.879Z,13.30
2022-10-17T06:59:46.667Z,13.30
2022-10-17T07:03:52.392Z,13.20
2022-10-17T07:07:54.258Z,13.00
2022-10-17T07:11:56.207Z,12.90
2022-10-17T07:16:01.781Z,13.00
2022-10-17T07:20:03.991Z,13.10
2022-10-17T07:24:07.276Z,13.10
2022-10-17T07:28:09.115Z,13.20
2022-10-17T07:32:10.986Z,13.00
2022-10-17T07:36:13.336Z,13.10
2022-10-17T07:40:15.218Z,13.00
2022-10-17T07:44:17.211Z,13.10
2022-10-17T07:48:19.878Z,13.30
2022-10-17T07:52:21.729Z,13.60
2022-10-17T07:56:25.035Z,13.80
2022-10-17T08:00:27.623Z,14.10
2022-10-17T08:04:29.793Z,14.50
2022-10-17T08:08:31.677Z,15.00
2022-10-17T08:12:34.520Z,15.10
2022-10-17T08:16:36.799Z,15.40
2022-10-17T08:20:38.624Z,15.50
2022-10-17T08:24:40.512Z,16.40
2022-10-17T08:28:42.738Z,17.10
2022-10-17T08:32:44.910Z,17.50
2022-10-17T08:36:46.768Z,18.20
2022-10-17T08:40:49.629Z,18.60
2022-10-17T08:45:02.559Z,19.00
2022-10-17T08:49:12.128Z,19.50
2022-10-17T08:53:27.632Z,19.90
2022-10-17T08:57:29.915Z,19.80
2022-10-17T09:01:49.733Z,19.90
2022-10-17T09:06:04.252Z,20.40
2022-10-17T09:10:11.939Z,20.90
2022-10-17T09:14:40.057Z,21.50
2022-10-17T09:18:46.221Z,21.10
2022-10-17T09:23:10.387Z,21.30
2022-10-17T09:27:34.574Z,21.90
2022-10-17T09:31:44.134Z,22.00
2022-10-17T09:35:47.079Z,22.40
2022-10-17T09:39:49.250Z,22.70
2022-10-17T09:43:56.383Z,23.30
2022-10-17T09:48:09.239Z,23.90
2022-10-17T09:52:36.814Z,23.70
2022-10-17T09:57:02.985Z,23.50
2022-10-17T10:01:24.406Z,23.70
2022-10-17T10:05:26.531Z,24.30
2022-10-17T10:09:31.617Z,24.20
2022-10-17T10:13:35.099Z,24.10
2022-10-17T10:17:41.998Z,24.10
2022-10-17T10:21:59.335Z,24.40
2022-10-17T10:26:06.265Z,24.70
2022-10-17T10:30:24.523Z,24.70
2022-10-17T10:34:30.157Z,24.70
2022-10-17T10:38:34.169Z,24.40
2022-10-17T10:42:40.868Z,24.80
2022-10-17T10:46:45.759Z,24.70
2022-10-17T10:51:04.374Z,24.90
2022-10-17T10:55:15.682Z,24.90
2022-10-17T10:59:58.400Z,25.20
2022-10-17T11:04:12.014Z,25.30
2022-10-17T11:08:31.731Z,25.40
2022-10-17T11:12:35.647Z,25.70
2022-10-17T11:16:49.292Z,25.80
2022-10-17T11:21:10.512Z,25.90
2022-10-17T11:25:12.330Z,26.20
2022-10-17T11:29:14.339Z,26.20
2022-10-17T11:33:45.046Z,26.10
2022-10-17T11:38:02.300Z,26.10
2022-10-17T11:42:19.858Z,26.30
2022-10-17T11:46:24.358Z,26.40
2022-10-17T11:55:16.330Z,26.80
2022-10-17T11:59:23.915Z,27.20
2022-10-17T12:03:31.569Z,26.80
2022-10-17T12:08:05.284Z,26.80
2022-10-17T12:12:07.561Z,26.70
2022-10-17T12:16:29.638Z,26.70
2022-10-17T12:20:38.505Z,26.60
2022-10-17T12:24:45.708Z,26.40
2022-10-17T12:28:48.451Z,26.30
2022-10-17T12:33:07.981Z,26.00
2022-10-17T12:37:11.886Z,26.00
2022-10-17T12:41:14.300Z,25.70
2022-10-17T12:45:48.055Z,25.60
2022-10-17T12:49:54.402Z,25.70
2022-10-17T12:54:02.576Z,25.80
2022-10-17T12:58:12.489Z,25.90
2022-10-17T13:02:21.184Z,26.10
2022-10-17T13:06:29.908Z,26.20
2022-10-17T13:10:35.111Z,26.20
2022-10-17T13:14:41.108Z,26.00
2022-10-17T13:18:52.324Z,26.00
2022-10-17T13:22:56.648Z,26.10
2022-10-17T13:26:59.659Z,26.10
2022-10-17T13:31:01.580Z,26.20
2022-10-17T13:35:17.265Z,26.10
2022-10-17T13:39:32.450Z,26.10
2022-10-17T13:43:41.137Z,26.20
2022-10-17T13:47:43.308Z,26.20
2022-10-17T13:51:48.695Z,26.30
2022-10-17T13:56:22.911Z,26.30
2022-10-17T14:00:23.005Z,26.40
2022-10-17T14:04:24.901Z,26.40
2022-10-17T14:08:27.080Z,26.30
2022-10-17T14:12:28.921Z,26.20
2022-10-17T14:16:44.682Z,26.20
2022-10-17T14:21:31.783Z,26.10
2022-10-17T14:25:32.268Z,26.10
2022-10-17T14:29:52.790Z,25.80
2022-10-17T14:33:55.086Z,25.80
2022-10-17T14:38:05.907Z,25.70
2022-10-17T14:42:16.278Z,25.60
2022-10-17T14:46:18.273Z,25.50
2022-10-17T14:50:28.987Z,25.50
2022-10-17T14:54:30.814Z,25.30
2022-10-17T14:58:33.725Z,25.20
2022-10-17T15:02:36.216Z,25.10
2022-10-17T15:06:38.298Z,24.90
2022-10-17T15:10:43.425Z,24.90
2022-10-17T15:14:45.804Z,24.80
2022-10-17T15:18:48.641Z,24.60
2022-10-17T15:22:50.520Z,24.50
2022-10-17T15:30:56.409Z,23.80
2022-10-17T15:34:58.250Z,22.40
2022-10-17T15:39:01.951Z,23.70
2022-10-17T15:43:03.784Z,22.60
2022-10-17T15:47:06.522Z,23.30
2022-10-17T15:51:08.981Z,23.00
2022-10-17T15:55:11.429Z,22.90
2022-10-17T15:59:17.989Z,22.50
2022-10-17T16:07:26.668Z,21.10
2022-10-17T16:11:37.043Z,20.30
2022-10-17T16:15:38.944Z,19.80
2022-10-17T16:19:41.029Z,19.40
2022-10-17T16:23:43.282Z,19.10
2022-10-17T16:27:49.009Z,18.80
2022-10-17T16:31:50.988Z,18.60
2022-10-17T16:35:53.324Z,18.40
2022-10-17T16:39:55.158Z,18.20
2022-10-17T16:43:59.558Z,18.00
2022-10-17T16:48:01.358Z,18.00
2022-10-17T16:52:03.736Z,17.80
2022-10-17T16:56:06.497Z,17.80
2022-10-17T17:00:09.103Z,17.80
2022-10-17T17:04:11.004Z,17.70
2022-10-17T17:08:12.868Z,17.50
2022-10-17T17:12:14.905Z,17.20
2022-10-17T17:16:22.411Z,17.00
2022-10-17T17:20:24.298Z,16.90
2022-10-17T17:24:26.133Z,17.00
2022-10-17T17:28:28.797Z,16.70
2022-10-17T17:32:32.626Z,16.90
2022-10-17T17:36:37.498Z,16.60
2022-10-17T17:40:50.592Z,16.50
2022-10-17T17:44:53.085Z,16.50
2022-10-17T17:48:56.073Z,16.50
2022-10-17T17:52:58.089Z,16.30
2022-10-17T17:57:00.007Z,16.20
2022-10-17T18:01:02.514Z,16.10
2022-10-17T18:05:04.701Z,16.10
2022-10-17T18:09:07.972Z,16.00
2022-10-17T18:13:09.841Z,16.00
2022-10-17T18:17:11.727Z,16.10
2022-10-17T18:21:14.343Z,16.20
2022-10-17T18:25:16.275Z,16.10
2022-10-17T18:29:18.105Z,16.00
2022-10-17T18:33:20.292Z,15.90
2022-10-17T18:37:22.133Z,15.80
2022-10-17T18:41:25.877Z,15.90
2022-10-17T18:45:27.842Z,15.80
2022-10-17T18:49:29.757Z,15.60
2022-10-17T18:53:32.079Z,15.60
2022-10-17T18:57:33.944Z,15.70
2022-10-17T19:01:35.876Z,15.70
2022-10-17T19:05:41.691Z,15.60
2022-10-17T19:09:43.549Z,15.50
2022-10-17T19:17:53.698Z,15.00
2022-10-17T19:21:55.652Z,15.60
2022-10-17T19:26:09.506Z,15.00
2022-10-17T19:30:12.685Z,14.90
2022-10-17T19:34:15.595Z,14.80
2022-10-17T19:38:17.393Z,14.70
2022-10-17T19:42:19.278Z,14.50
2022-10-17T19:46:23.976Z,14.40
2022-10-17T19:50:25.822Z,14.40
2022-10-17T19:54:27.681Z,14.50
2022-10-17T19:58:29.576Z,14.50
2022-10-17T20:02:31.738Z,14.20
2022-10-17T20:06:34.524Z,14.00
2022-10-17T20:10:36.465Z,14.10
2022-10-17T20:14:41.107Z,14.20
2022-10-17T20:18:43.872Z,14.40
2022-10-17T20:22:45.692Z,14.30
2022-10-17T20:26:47.636Z,14.20
2022-10-17T20:30:49.461Z,14.20
2022-10-17T20:34:51.289Z,14.00
2022-10-17T20:38:55.157Z,13.80
2022-10-17T20:42:57.660Z,13.80
2022-10-17T20:47:02.242Z,13.20
2022-10-17T20:51:08.971Z,13.30
2022-10-17T20:55:10.863Z,13.40
2022-10-17T20:59:16.194Z,13.40
2022-10-17T21:03:18.048Z,13.50
2022-10-17T21:07:21.215Z,13.60
2022-10-17T21:11:28.498Z,13.50
2022-10-17T21:15:30.374Z,13.10
2022-10-17T21:19:32.346Z,13.00
2022-10-17T21:23:34.263Z,13.20
2022-10-17T21:27:36.159Z,13.10
2022-10-17T21:31:39.958Z,13.00
2022-10-17T21:35:41.788Z,12.80
2022-10-17T21:39:43.627Z,12.70
2022-10-17T21:43:45.876Z,12.70
2022-10-17T21:48:11.199Z,12.80
2022-10-17T21:52:09.555Z,12.90
2022-10-17T21:56:17.214Z,12.90
2022-10-17T22:00:19.084Z,12.90
2022-10-17T22:04:20.981Z,12.90
2022-10-17T22:08:23.041Z,12.90
2022-10-17T22:12:24.913Z,13.00
2022-10-17T22:16:27.036Z,12.80
2022-10-17T22:20:29.143Z,12.70
2022-10-17T22:24:30.960Z,12.70
2022-10-17T22:28:33.278Z,12.60
2022-10-17T22:32:35.227Z,12.50
2022-10-17T22:36:37.160Z,12.40
2022-10-17T22:40:39.134Z,12.40
2022-10-17T22:44:41.062Z,12.40
2022-10-17T22:48:43.087Z,12.30
2022-10-17T22:52:44.933Z,12.10
2022-10-17T22:56:46.834Z,12.10
2022-10-17T23:00:50.007Z,12.00
2022-10-17T23:04:51.935Z,11.80
2022-10-17T23:08:53.835Z,11.80
2022-10-17T23:12:55.683Z,11.70
2022-10-17T23:16:57.509Z,11.60
2022-10-17T23:20:59.424Z,11.70
2022-10-17T23:25:01.282Z,11.50
2022-10-17T23:29:03.403Z,11.40
2022-10-17T23:33:05.766Z,11.50
2022-10-17T23:37:07.596Z,11.70
2022-10-17T23:41:09.521Z,11.90
2022-10-17T23:45:12.039Z,11.80
2022-10-17T23:49:14.028Z,11.70
2022-10-17T23:53:15.854Z,11.50
2022-10-17T23:57:17.659Z,11.40
